Time;durP1;ratioP1;P1;durP2;ratioP2;P2;SDS_P1;SDS_P2;PMS_P1;PMS_P2;Temp;Humidity;BMP_temperature;BMP_pressure;BME280_temperature;BME280_humidity;BME280_pressure;Samples;Min_cycle;Max_cycle;Signal;HPM_P1;HPM_P2
2021/05/30 00:02:28;;;;;;;2.93;2.20;;;;;;;;;;5093576;28;20226;-71
2021/05/30 00:05:33;;;;;;;2.27;2.07;;;;;;;;;;5082962;28;20174;-72
2021/05/30 00:08:37;;;;;;;2.63;2.17;;;;;;;;;;5094687;28;20203;-71
2021/05/30 00:11:41;;;;;;;4.93;2.30;;;;;;;;;;5078056;28;20211;-71
2021/05/30 00:14:45;;;;;;;4.50;2.40;;;;;;;;;;5062325;28;20199;-72
2021/05/30 00:17:49;;;;;;;4.37;2.50;;;;;;;;;;5062384;28;20199;-71
2021/05/30 00:20:53;;;;;;;2.90;2.47;;;;;;;;;;5084623;28;20187;-71
2021/05/30 00:23:58;;;;;;;3.33;2.63;;;;;;;;;;5074497;28;20215;-72
2021/05/30 00:27:03;;;;;;;2.67;2.47;;;;;;;;;;5074740;28;20184;-72
2021/05/30 00:30:08;;;;;;;2.87;2.60;;;;;;;;;;5074539;28;20582;-72
2021/05/30 00:33:14;;;;;;;2.53;2.33;;;;;;;;;;5062144;28;20211;-71
2021/05/30 00:36:19;;;;;;;3.30;2.63;;;;;;;;;;5074559;28;20179;-72
2021/05/30 00:39:23;;;;;;;2.97;2.40;;;;;;;;;;5073969;28;20642;-72
2021/05/30 00:42:27;;;;;;;3.50;2.30;;;;;;;;;;5088630;28;20245;-72
2021/05/30 00:45:31;;;;;;;3.63;2.37;;;;;;;;;;5094618;28;20533;-72
2021/05/30 00:48:36;;;;;;;4.77;2.50;;;;;;;;;;5090188;28;20215;-71
2021/05/30 00:51:40;;;;;;;3.07;2.40;;;;;;;;;;5093561;28;20190;-71
2021/05/30 00:54:44;;;;;;;3.63;2.50;;;;;;;;;;5070137;28;20202;-72
2021/05/30 00:57:49;;;;;;;3.20;2.40;;;;;;;;;;5074216;28;20191;-71
2021/05/30 01:00:53;;;;;;;4.43;2.70;;;;;;;;;;5086477;28;20191;-71
2021/05/30 01:03:57;;;;;;;5.00;2.87;;;;;;;;;;5094049;28;20214;-72
2021/05/30 01:07:02;;;;;;;6.53;2.30;;;;;;;;;;5094219;28;20171;-72
2021/05/30 01:10:33;;;;;;;3.53;2.80;;;;;;;;;;5092276;28;20677;-72
2021/05/30 01:13:37;;;;;;;3.50;2.80;;;;;;;;;;5087878;28;20586;-71
2021/05/30 01:16:41;;;;;;;4.30;2.90;;;;;;;;;;5093757;28;20178;-71
2021/05/30 01:19:49;;;;;;;2.80;2.53;;;;;;;;;;5093346;28;20191;-71
2021/05/30 01:22:54;;;;;;;4.07;2.60;;;;;;;;;;5061313;28;20586;-72
2021/05/30 01:25:58;;;;;;;2.87;2.57;;;;;;;;;;5073668;28;20179;-72
2021/05/30 01:29:03;;;;;;;3.73;2.83;;;;;;;;;;5073261;28;20200;-72
2021/05/30 01:32:07;;;;;;;5.47;3.10;;;;;;;;;;5074377;28;20202;-71
2021/05/30 01:35:12;;;;;;;5.60;3.40;;;;;;;;;;5073258;28;20195;-72
2021/05/30 01:38:16;;;;;;;3.63;3.10;;;;;;;;;;5061192;28;20200;-72
2021/05/30 01:41:20;;;;;;;4.63;3.20;;;;;;;;;;5074291;28;20199;-71
2021/05/30 01:44:24;;;;;;;3.83;3.33;;;;;;;;;;5073108;28;20215;-72
2021/05/30 01:47:28;;;;;;;3.30;2.73;;;;;;;;;;5073422;28;20180;-72
2021/05/30 01:50:34;;;;;;;5.17;3.33;;;;;;;;;;5078223;28;20211;-71
2021/05/30 01:53:46;;;;;;;5.03;3.33;;;;;;;;;;5093260;28;20218;-72
2021/05/30 01:56:57;;;;;;;3.67;3.10;;;;;;;;;;5093518;28;20179;-72
2021/05/30 02:00:01;;;;;;;7.73;3.40;;;;;;;;;;5080713;28;20187;-71
2021/05/30 02:03:08;;;;;;;4.20;3.23;;;;;;;;;;5080707;28;20704;-72
2021/05/30 02:06:15;;;;;;;4.13;3.10;;;;;;;;;;5091192;28;20170;-71
2021/05/30 02:09:21;;;;;;;4.53;2.87;;;;;;;;;;5093333;28;20203;-72
2021/05/30 02:12:26;;;;;;;3.73;3.40;;;;;;;;;;5072771;28;20199;-71
2021/05/30 02:15:31;;;;;;;4.20;3.67;;;;;;;;;;5060572;28;20233;-72
2021/05/30 02:18:35;;;;;;;5.20;3.60;;;;;;;;;;5073064;28;20180;-72
2021/05/30 02:21:47;;;;;;;4.77;3.73;;;;;;;;;;5087772;28;20190;-71
2021/05/30 02:24:52;;;;;;;4.67;3.57;;;;;;;;;;5093115;28;20187;-71
2021/05/30 02:27:56;;;;;;;4.60;3.80;;;;;;;;;;5049249;28;20646;-71
2021/05/30 02:31:00;;;;;;;4.17;3.60;;;;;;;;;;5068870;28;20661;-71
2021/05/30 02:34:04;;;;;;;3.90;3.47;;;;;;;;;;5073872;28;20689;-71
2021/05/30 02:37:15;;;;;;;4.70;3.83;;;;;;;;;;5093156;28;20637;-72
2021/05/30 02:40:19;;;;;;;4.17;3.63;;;;;;;;;;5076984;28;20188;-71
2021/05/30 02:43:24;;;;;;;4.23;3.50;;;;;;;;;;5088828;28;20218;-71
2021/05/30 02:46:28;;;;;;;8.03;3.70;;;;;;;;;;5092755;28;20649;-72
2021/05/30 02:49:33;;;;;;;4.10;3.43;;;;;;;;;;5080384;28;20207;-72
2021/05/30 02:52:38;;;;;;;3.90;3.50;;;;;;;;;;5070750;28;20215;-71
2021/05/30 02:55:42;;;;;;;5.57;3.70;;;;;;;;;;5072785;28;20171;-72
2021/05/30 02:58:47;;;;;;;4.33;3.70;;;;;;;;;;5072487;28;20183;-71
2021/05/30 03:01:50;;;;;;;4.30;3.90;;;;;;;;;;5077453;28;20198;-71
2021/05/30 03:04:55;;;;;;;4.40;4.00;;;;;;;;;;5085751;28;20199;-71
2021/05/30 03:07:59;;;;;;;5.83;3.37;;;;;;;;;;5076011;28;20175;-72
2021/05/30 03:11:03;;;;;;;5.57;3.67;;;;;;;;;;5075968;28;20191;-71
2021/05/30 03:14:08;;;;;;;4.23;3.83;;;;;;;;;;5075890;28;20215;-71
2021/05/30 03:17:12;;;;;;;6.57;4.27;;;;;;;;;;5063712;28;20195;-72
2021/05/30 03:20:16;;;;;;;6.77;4.03;;;;;;;;;;5080333;28;20202;-70
2021/05/30 03:23:20;;;;;;;5.30;3.80;;;;;;;;;;5095632;28;20728;-71
2021/05/30 03:26:24;;;;;;;4.40;4.00;;;;;;;;;;5083592;28;20659;-71
2021/05/30 03:29:29;;;;;;;6.30;4.00;;;;;;;;;;5081771;28;20584;-71
2021/05/30 03:32:33;;;;;;;5.73;4.47;;;;;;;;;;5075635;28;20211;-71
2021/05/30 03:35:38;;;;;;;4.93;3.93;;;;;;;;;;5082001;28;20179;-71
2021/05/30 03:38:42;;;;;;;4.67;3.90;;;;;;;;;;5075992;28;20183;-72
2021/05/30 03:41:54;;;;;;;5.80;4.17;;;;;;;;;;5075630;28;20175;-72
2021/05/30 03:44:59;;;;;;;5.27;3.93;;;;;;;;;;5075309;28;20191;-72
2021/05/30 03:48:05;;;;;;;4.87;4.20;;;;;;;;;;5063153;28;20184;-72
2021/05/30 03:51:09;;;;;;;7.37;4.07;;;;;;;;;;5087514;28;20215;-71
2021/05/30 03:54:13;;;;;;;5.20;4.70;;;;;;;;;;5082722;28;20238;-71
2021/05/30 03:57:18;;;;;;;4.73;4.10;;;;;;;;;;5082338;22;20235;-74
2021/05/30 04:00:22;;;;;;;4.60;4.20;;;;;;;;;;5058038;28;20176;-75
2021/05/30 04:03:25;;;;;;;5.97;4.30;;;;;;;;;;5055014;28;20582;-74
2021/05/30 04:06:29;;;;;;;4.97;4.10;;;;;;;;;;5042897;28;20188;-74
2021/05/30 04:09:34;;;;;;;5.50;3.87;;;;;;;;;;5042836;28;20200;-74
2021/05/30 04:12:39;;;;;;;4.80;4.30;;;;;;;;;;5054804;28;20211;-75
2021/05/30 04:15:44;;;;;;;4.80;3.97;;;;;;;;;;5042696;28;20538;-74
2021/05/30 04:18:48;;;;;;;4.57;3.70;;;;;;;;;;5042505;28;20630;-74
2021/05/30 04:21:51;;;;;;;5.33;3.47;;;;;;;;;;5055265;28;20187;-75
2021/05/30 04:24:56;;;;;;;4.57;3.67;;;;;;;;;;5058036;28;20195;-75
2021/05/30 04:28:00;;;;;;;5.17;3.50;;;;;;;;;;5070709;28;20183;-75
2021/05/30 04:31:04;;;;;;;4.33;3.77;;;;;;;;;;5051839;28;20203;-75
2021/05/30 04:34:08;;;;;;;4.60;3.40;;;;;;;;;;5050258;28;20215;-75
2021/05/30 04:37:12;;;;;;;5.83;3.73;;;;;;;;;;5038211;28;20279;-75
2021/05/30 04:40:18;;;;;;;7.53;4.43;;;;;;;;;;5055901;28;20179;-75
2021/05/30 04:43:21;;;;;;;4.83;4.33;;;;;;;;;;5070230;28;20211;-75
2021/05/30 04:46:26;;;;;;;4.70;4.10;;;;;;;;;;5070187;28;20557;-75
2021/05/30 04:49:30;;;;;;;4.40;4.00;;;;;;;;;;5069996;28;20195;-75
2021/05/30 04:52:34;;;;;;;6.47;4.33;;;;;;;;;;5050150;28;20223;-75
2021/05/30 04:55:39;;;;;;;4.80;4.00;;;;;;;;;;5050236;28;20550;-75
2021/05/30 04:58:43;;;;;;;10.07;5.57;;;;;;;;;;5067862;28;20203;-75
2021/05/30 05:01:47;;;;;;;8.03;5.20;;;;;;;;;;5067510;28;20187;-74
2021/05/30 05:04:51;;;;;;;8.67;5.17;;;;;;;;;;5073199;28;20188;-74
2021/05/30 05:07:55;;;;;;;8.07;5.87;;;;;;;;;;5050276;28;20175;-74
2021/05/30 05:10:59;;;;;;;9.77;6.80;;;;;;;;;;5063815;28;20563;-74
2021/05/30 05:14:03;;;;;;;12.83;7.33;;;;;;;;;;5053879;28;20701;-74
2021/05/30 05:17:08;;;;;;;11.13;7.67;;;;;;;;;;5064314;28;20191;-74
2021/05/30 05:20:12;;;;;;;10.43;7.27;;;;;;;;;;5073262;28;20184;-74
2021/05/30 05:23:18;;;;;;;9.77;5.97;;;;;;;;;;5056991;28;20216;-75
2021/05/30 05:26:23;;;;;;;9.27;6.03;;;;;;;;;;5052973;28;20196;-75
2021/05/30 05:29:27;;;;;;;7.00;5.90;;;;;;;;;;5040979;28;20199;-74
2021/05/30 05:32:31;;;;;;;7.97;5.07;;;;;;;;;;5053279;28;20589;-74
2021/05/30 05:35:35;;;;;;;9.10;6.10;;;;;;;;;;5053261;28;20554;-74
2021/05/30 05:38:39;;;;;;;7.53;5.77;;;;;;;;;;5053335;28;20638;-75
2021/05/30 05:41:44;;;;;;;7.37;6.20;;;;;;;;;;5057790;28;20191;-74
2021/05/30 05:44:48;;;;;;;7.53;5.63;;;;;;;;;;5060570;28;20191;-74
2021/05/30 05:47:52;;;;;;;9.30;6.60;;;;;;;;;;5073086;28;20533;-74
2021/05/30 05:50:57;;;;;;;9.23;6.40;;;;;;;;;;5061690;28;20208;-74
2021/05/30 05:54:01;;;;;;;10.20;7.10;;;;;;;;;;5052635;28;20224;-74
2021/05/30 05:57:05;;;;;;;9.17;6.90;;;;;;;;;;5040426;28;20199;-74
2021/05/30 06:00:13;;;;;;;10.33;7.47;;;;;;;;;;5061408;28;20203;-74
2021/05/30 06:03:18;;;;;;;8.73;7.17;;;;;;;;;;5060386;28;20223;-74
2021/05/30 06:06:22;;;;;;;11.70;8.10;;;;;;;;;;5072838;28;20521;-73
2021/05/30 06:09:26;;;;;;;12.73;8.77;;;;;;;;;;5070169;28;20188;-75
2021/05/30 06:12:30;;;;;;;17.13;9.87;;;;;;;;;;5040267;28;20208;-73
2021/05/30 06:15:35;;;;;;;13.90;8.23;;;;;;;;;;5052537;28;20531;-74
2021/05/30 06:18:39;;;;;;;11.13;8.57;;;;;;;;;;5047848;28;20195;-74
2021/05/30 06:21:43;;;;;;;11.63;8.50;;;;;;;;;;5053027;28;20172;-74
2021/05/30 06:24:48;;;;;;;11.23;8.20;;;;;;;;;;5052641;28;20623;-74
2021/05/30 06:27:55;;;;;;;12.00;8.67;;;;;;;;;;5052620;28;20176;-75
2021/05/30 06:30:59;;;;;;;12.97;7.90;;;;;;;;;;5055412;28;20223;-73
2021/05/30 06:34:04;;;;;;;16.10;9.47;;;;;;;;;;5072358;28;20571;-74
2021/05/30 06:37:09;;;;;;;10.77;8.20;;;;;;;;;;5072576;28;20661;-73
2021/05/30 06:40:14;;;;;;;11.10;7.60;;;;;;;;;;5045011;28;20542;-75
2021/05/30 06:43:18;;;;;;;11.77;8.00;;;;;;;;;;5064051;28;20219;-74
2021/05/30 06:46:24;;;;;;;12.80;9.03;;;;;;;;;;5071317;28;20192;-75
2021/05/30 06:49:30;;;;;;;11.80;8.60;;;;;;;;;;5045404;28;20180;-74
2021/05/30 06:52:34;;;;;;;12.43;8.63;;;;;;;;;;5056384;28;20212;-74
2021/05/30 06:55:38;;;;;;;13.03;8.13;;;;;;;;;;5056622;28;20184;-74
2021/05/30 06:58:43;;;;;;;11.03;8.00;;;;;;;;;;5056251;28;20181;-74
2021/05/30 07:01:47;;;;;;;11.47;8.83;;;;;;;;;;5056619;28;20177;-74
2021/05/30 07:04:52;;;;;;;13.80;9.13;;;;;;;;;;5043828;28;20520;-74
2021/05/30 07:07:57;;;;;;;13.43;8.37;;;;;;;;;;5058119;28;20176;-74
2021/05/30 07:11:01;;;;;;;11.97;7.43;;;;;;;;;;5058831;28;20216;-74
2021/05/30 07:14:05;;;;;;;11.40;8.03;;;;;;;;;;5057446;28;20223;-75
2021/05/30 07:17:10;;;;;;;12.03;8.23;;;;;;;;;;5075774;28;20199;-74
2021/05/30 07:20:14;;;;;;;11.03;7.97;;;;;;;;;;5062372;28;20528;-74
2021/05/30 07:23:20;;;;;;;9.33;7.00;;;;;;;;;;5055768;28;20219;-74
2021/05/30 07:26:24;;;;;;;21.40;15.87;;;;;;;;;;5032599;28;20177;-74
2021/05/30 07:29:29;;;;;;;12.67;6.70;;;;;;;;;;5062199;28;20191;-76
2021/05/30 07:32:33;;;;;;;7.63;6.17;;;;;;;;;;5076028;28;20211;-74
2021/05/30 07:35:38;;;;;;;9.90;5.67;;;;;;;;;;5074307;28;20642;-74
2021/05/30 07:38:42;;;;;;;7.70;5.97;;;;;;;;;;5056931;28;20642;-74
2021/05/30 07:41:47;;;;;;;8.57;5.63;;;;;;;;;;5067625;28;20184;-74
2021/05/30 07:44:51;;;;;;;8.03;5.53;;;;;;;;;;5075528;28;20195;-75
2021/05/30 07:47:56;;;;;;;6.07;5.00;;;;;;;;;;5071382;28;20180;-74
2021/05/30 07:51:00;;;;;;;8.00;5.20;;;;;;;;;;5069185;28;20208;-75
2021/05/30 07:54:04;;;;;;;6.80;4.80;;;;;;;;;;5075085;28;20219;-75
2021/05/30 07:57:09;;;;;;;7.67;5.00;;;;;;;;;;5074465;28;20211;-76
2021/05/30 08:00:16;;;;;;;5.67;4.70;;;;;;;;;;5055101;28;20184;-76
2021/05/30 08:03:21;;;;;;;5.73;4.53;;;;;;;;;;5070791;28;20681;-76
2021/05/30 08:06:25;;;;;;;6.83;4.63;;;;;;;;;;5067811;28;20199;-75
2021/05/30 08:09:30;;;;;;;8.53;4.30;;;;;;;;;;5054960;28;20184;-72
2021/05/30 08:12:34;;;;;;;6.93;4.27;;;;;;;;;;5042458;28;20219;-73
2021/05/30 08:15:38;;;;;;;6.30;3.97;;;;;;;;;;5069532;28;20203;-73
2021/05/30 08:18:42;;;;;;;8.40;3.70;;;;;;;;;;5075036;28;20638;-73
2021/05/30 08:21:46;;;;;;;4.37;3.33;;;;;;;;;;5066696;28;20203;-73
2021/05/30 08:24:50;;;;;;;3.90;2.57;;;;;;;;;;5074773;28;20172;-73
2021/05/30 08:27:55;;;;;;;5.07;3.13;;;;;;;;;;5060735;28;20196;-73
2021/05/30 08:30:59;;;;;;;5.03;3.20;;;;;;;;;;5061866;28;20207;-73
2021/05/30 08:34:03;;;;;;;7.40;5.00;;;;;;;;;;5072022;28;20223;-73
2021/05/30 08:37:07;;;;;;;5.23;2.87;;;;;;;;;;5063964;28;20195;-73
2021/05/30 08:40:13;;;;;;;12.57;3.30;;;;;;;;;;5073703;28;20175;-73
2021/05/30 08:43:18;;;;;;;4.67;2.50;;;;;;;;;;5041845;28;20220;-73
2021/05/30 08:46:22;;;;;;;2.63;2.20;;;;;;;;;;5059451;28;20195;-73
2021/05/30 08:49:26;;;;;;;3.80;2.50;;;;;;;;;;5073961;28;20180;-72
2021/05/30 08:52:33;;;;;;;4.17;2.40;;;;;;;;;;5073403;28;20227;-73
2021/05/30 08:55:38;;;;;;;4.63;2.73;;;;;;;;;;5065436;28;20196;-73
2021/05/30 08:58:45;;;;;;;4.03;2.33;;;;;;;;;;5050117;28;20191;-73
2021/05/30 09:01:49;;;;;;;6.43;2.63;;;;;;;;;;5072526;28;20192;-73
2021/05/30 09:04:56;;;;;;;5.63;2.33;;;;;;;;;;5073624;28;20191;-73
2021/05/30 09:08:00;;;;;;;5.33;2.60;;;;;;;;;;5050534;28;20198;-73
2021/05/30 09:11:07;;;;;;;3.23;2.43;;;;;;;;;;5030357;28;20204;-73
2021/05/30 09:14:17;;;;;;;3.53;2.53;;;;;;;;;;5042922;28;20224;-73
2021/05/30 09:17:26;;;;;;;15.97;3.00;;;;;;;;;;5061116;28;20195;-73
2021/05/30 09:20:50;;;;;;;3.87;2.37;;;;;;;;;;5065736;28;20181;-73
2021/05/30 09:23:54;;;;;;;3.03;2.27;;;;;;;;;;5041548;28;20227;-73
2021/05/30 09:27:07;;;;;;;23.70;2.80;;;;;;;;;;5053943;28;20180;-73
2021/05/30 09:30:39;;;;;;;3.70;2.23;;;;;;;;;;5045863;28;20662;-73
2021/05/30 09:33:43;;;;;;;3.57;2.20;;;;;;;;;;5058278;28;20206;-73
2021/05/30 09:36:51;;;;;;;3.67;2.40;;;;;;;;;;5058870;28;20191;-73
2021/05/30 09:39:55;;;;;;;3.07;2.10;;;;;;;;;;5061069;28;20182;-73
2021/05/30 09:43:08;;;;;;;2.97;2.10;;;;;;;;;;5054032;28;20219;-73
2021/05/30 09:46:17;;;;;;;4.10;1.97;;;;;;;;;;5045455;28;20239;-74
2021/05/30 09:49:21;;;;;;;3.37;1.97;;;;;;;;;;5054540;28;20188;-73
2021/05/30 09:52:42;;;;;;;4.87;2.10;;;;;;;;;;5056256;28;20543;-74
2021/05/30 09:55:46;;;;;;;2.70;2.07;;;;;;;;;;5061197;28;20643;-74
2021/05/30 09:58:51;;;;;;;3.72;1.90;;;;;;;;;;5084041;22;20233;-71
2021/05/30 10:01:58;;;;;;;5.00;2.20;;;;;;;;;;5089690;28;20180;-71
2021/05/30 10:05:02;;;;;;;2.80;2.25;;;;;;;;;;5061280;28;20199;-74
2021/05/30 10:08:06;;;;;;;4.25;2.17;;;;;;;;;;5073029;28;20178;-71
2021/05/30 10:11:11;;;;;;;2.50;2.05;;;;;;;;;;5060584;28;20202;-72
2021/05/30 10:14:15;;;;;;;3.40;2.00;;;;;;;;;;5077882;28;20230;-72
2021/05/30 10:17:19;;;;;;;3.63;1.87;;;;;;;;;;5077076;28;20647;-72
2021/05/30 10:20:25;;;;;;;3.80;2.07;;;;;;;;;;5058364;28;20195;-71
2021/05/30 10:23:31;;;;;;;2.53;1.77;;;;;;;;;;5044754;28;20217;-72
2021/05/30 10:26:36;;;;;;;3.53;2.07;;;;;;;;;;5056978;28;20180;-71
2021/05/30 10:29:41;;;;;;;2.40;2.00;;;;;;;;;;5063314;28;20194;-71
2021/05/30 10:32:47;;;;;;;2.60;2.03;;;;;;;;;;5076557;28;20229;-70
2021/05/30 10:35:55;;;;;;;3.40;2.00;;;;;;;;;;5076923;28;20553;-70
2021/05/30 10:38:59;;;;;;;2.73;2.40;;;;;;;;;;5053150;28;20178;-71
2021/05/30 10:42:10;;;;;;;4.07;1.92;;;;;;;;;;5076583;28;20200;-70
2021/05/30 10:45:17;;;;;;;2.95;2.20;;;;;;;;;;5074854;28;20194;-72
2021/05/30 10:48:21;;;;;;;4.18;2.17;;;;;;;;;;5076390;28;20179;-71
2021/05/30 10:51:42;;;;;;;2.40;2.17;;;;;;;;;;5076678;28;20172;-72
2021/05/30 10:55:07;;;;;;;4.28;2.13;;;;;;;;;;5061549;28;20655;-71
2021/05/30 10:58:15;;;;;;;3.45;1.92;;;;;;;;;;5056612;28;20205;-72
2021/05/30 11:01:34;;;;;;;2.75;2.35;;;;;;;;;;5067453;28;20188;-71
2021/05/30 11:04:39;;;;;;;3.30;2.53;;;;;;;;;;5069183;28;20537;-71
2021/05/30 11:07:43;;;;;;;3.17;2.20;;;;;;;;;;5056895;28;20184;-72
2021/05/30 11:10:51;;;;;;;3.42;2.00;;;;;;;;;;5067425;28;20194;-71
2021/05/30 11:14:10;;;;;;;2.83;2.15;;;;;;;;;;5096212;28;20217;-71
2021/05/30 11:17:34;;;;;;;12.00;3.05;;;;;;;;;;5093333;28;20185;-71
2021/05/30 11:20:43;;;;;;;3.10;2.08;;;;;;;;;;5084316;28;20611;-71
2021/05/30 11:23:48;;;;;;;2.95;1.90;;;;;;;;;;5091486;28;20220;-71
2021/05/30 11:27:03;;;;;;;3.13;2.00;;;;;;;;;;5063767;28;20195;-71
2021/05/30 11:30:08;;;;;;;2.15;1.92;;;;;;;;;;5071293;28;20193;-71
2021/05/30 11:33:25;;;;;;;3.88;2.30;;;;;;;;;;5060380;28;20225;-71
2021/05/30 11:36:32;;;;;;;5.43;2.50;;;;;;;;;;5075039;28;20648;-72
2021/05/30 11:39:43;;;;;;;3.13;2.00;;;;;;;;;;5074637;28;20189;-71
2021/05/30 11:42:48;;;;;;;3.03;2.35;;;;;;;;;;5067469;28;20205;-71
2021/05/30 11:45:53;;;;;;;2.88;1.85;;;;;;;;;;5074882;28;20629;-71
2021/05/30 11:49:08;;;;;;;3.45;1.90;;;;;;;;;;5061866;28;20200;-71
2021/05/30 11:52:15;;;;;;;5.55;2.40;;;;;;;;;;5075690;28;20212;-71
2021/05/30 11:55:19;;;;;;;3.38;2.25;;;;;;;;;;5063058;28;20208;-71
2021/05/30 11:58:25;;;;;;;3.05;2.17;;;;;;;;;;5074515;28;20206;-71
2021/05/30 12:01:51;;;;;;;3.63;2.15;;;;;;;;;;5075291;28;20184;-71
2021/05/30 12:04:59;;;;;;;2.30;1.88;;;;;;;;;;5075118;28;20180;-71
2021/05/30 12:08:15;;;;;;;4.93;2.47;;;;;;;;;;5068391;28;20196;-71
2021/05/30 12:11:19;;;;;;;2.58;2.00;;;;;;;;;;5054995;28;20180;-71
2021/05/30 12:14:24;;;;;;;47.83;4.35;;;;;;;;;;5054772;28;20552;-72
2021/05/30 12:17:28;;;;;;;2.92;2.03;;;;;;;;;;5071618;28;20196;-71
2021/05/30 12:20:34;;;;;;;7.10;2.15;;;;;;;;;;5042540;28;20177;-72
2021/05/30 12:23:38;;;;;;;3.60;1.70;;;;;;;;;;5054640;28;20213;-71
2021/05/30 12:26:47;;;;;;;2.63;2.13;;;;;;;;;;5043286;28;20189;-71
2021/05/30 12:29:53;;;;;;;2.33;2.10;;;;;;;;;;5042566;28;20185;-71
2021/05/30 12:33:02;;;;;;;3.53;2.05;;;;;;;;;;5054591;28;20224;-72
2021/05/30 12:36:06;;;;;;;3.33;2.13;;;;;;;;;;5067249;28;20195;-71
2021/05/30 12:39:15;;;;;;;4.00;2.17;;;;;;;;;;5055925;28;20180;-71
2021/05/30 12:42:23;;;;;;;4.47;2.05;;;;;;;;;;5054461;28;20172;-71
2021/05/30 12:45:27;;;;;;;3.80;2.08;;;;;;;;;;5071202;28;20192;-70
2021/05/30 12:48:37;;;;;;;6.18;2.00;;;;;;;;;;5057061;28;20185;-71
2021/05/30 12:52:03;;;;;;;3.47;2.10;;;;;;;;;;5068340;28;20544;-71
2021/05/30 12:55:08;;;;;;;2.63;2.20;;;;;;;;;;5055100;28;20189;-71
2021/05/30 12:58:19;;;;;;;3.45;1.92;;;;;;;;;;5057364;28;20563;-71
2021/05/30 13:01:24;;;;;;;3.55;2.10;;;;;;;;;;5057311;28;20191;-70
2021/05/30 13:04:31;;;;;;;3.83;1.70;;;;;;;;;;5053685;28;20212;-70
2021/05/30 13:07:36;;;;;;;4.07;1.90;;;;;;;;;;5054457;28;20555;-70
2021/05/30 13:11:01;;;;;;;4.90;1.90;;;;;;;;;;5061451;28;20185;-71
2021/05/30 13:14:06;;;;;;;2.22;1.73;;;;;;;;;;5073520;28;20238;-71
2021/05/30 13:17:23;;;;;;;5.57;2.30;;;;;;;;;;5061297;28;20182;-71
2021/05/30 13:20:29;;;;;;;1.87;1.50;;;;;;;;;;5073754;28;20195;-71
2021/05/30 13:23:33;;;;;;;8.00;2.00;;;;;;;;;;5074276;28;20206;-71
2021/05/30 13:26:47;;;;;;;2.33;1.80;;;;;;;;;;5061176;28;20192;-71
2021/05/30 13:30:07;;;;;;;5.07;1.93;;;;;;;;;;5073399;28;20190;-71
2021/05/30 13:33:11;;;;;;;2.37;1.90;;;;;;;;;;5073498;28;20227;-71
2021/05/30 13:36:17;;;;;;;3.43;2.03;;;;;;;;;;5073349;28;20175;-71
2021/05/30 13:39:21;;;;;;;3.47;1.83;;;;;;;;;;5073584;28;20177;-71
2021/05/30 13:42:25;;;;;;;6.77;2.17;;;;;;;;;;5073480;28;20175;-71
2021/05/30 13:45:31;;;;;;;3.17;1.80;;;;;;;;;;5073773;28;20619;-71
2021/05/30 13:48:35;;;;;;;3.27;1.83;;;;;;;;;;5073533;28;20188;-71
2021/05/30 13:51:39;;;;;;;1.93;1.73;;;;;;;;;;5073754;28;20182;-71
2021/05/30 13:54:43;;;;;;;4.97;1.63;;;;;;;;;;5060997;28;20634;-71
2021/05/30 13:57:49;;;;;;;5.20;1.90;;;;;;;;;;5073067;28;20212;-71
2021/05/30 14:00:54;;;;;;;2.53;1.70;;;;;;;;;;5073369;28;20174;-71
2021/05/30 14:03:58;;;;;;;6.55;1.95;;;;;;;;;;5060706;28;20211;-71
2021/05/30 14:07:02;;;;;;;2.83;1.55;;;;;;;;;;5073290;28;20199;-71
2021/05/30 14:10:08;;;;;;;4.35;1.90;;;;;;;;;;5072986;28;20184;-71
2021/05/30 14:13:13;;;;;;;2.65;1.65;;;;;;;;;;5072295;28;20226;-71
2021/05/30 14:16:17;;;;;;;5.45;1.58;;;;;;;;;;5073192;28;20181;-71
2021/05/30 14:19:22;;;;;;;2.35;1.70;;;;;;;;;;5071958;28;20177;-71
2021/05/30 14:22:26;;;;;;;2.70;1.83;;;;;;;;;;5073051;28;20186;-71
2021/05/30 14:25:31;;;;;;;1.98;1.70;;;;;;;;;;5073383;28;20176;-71
2021/05/30 14:28:35;;;;;;;3.38;1.80;;;;;;;;;;5060832;28;20516;-71
2021/05/30 14:31:39;;;;;;;2.13;1.58;;;;;;;;;;5073336;28;20182;-70
2021/05/30 14:34:44;;;;;;;1.83;1.63;;;;;;;;;;5073021;28;20204;-70
2021/05/30 14:37:52;;;;;;;2.85;1.90;;;;;;;;;;5072991;28;20185;-71
2021/05/30 14:40:56;;;;;;;2.88;1.70;;;;;;;;;;5072937;28;20193;-71
2021/05/30 14:44:00;;;;;;;2.20;1.65;;;;;;;;;;5060568;28;20219;-71
2021/05/30 14:47:04;;;;;;;9.10;5.57;;;;;;;;;;5072933;28;20526;-71
2021/05/30 14:50:09;;;;;;;4.47;3.47;;;;;;;;;;5072602;28;20185;-71
2021/05/30 14:53:13;;;;;;;4.78;2.90;;;;;;;;;;5072739;28;20228;-71
2021/05/30 14:56:18;;;;;;;6.88;6.05;;;;;;;;;;5072997;28;20181;-71
2021/05/30 14:59:22;;;;;;;7.43;6.20;;;;;;;;;;5074049;28;20203;-71
2021/05/30 15:02:26;;;;;;;2.47;1.90;;;;;;;;;;5076403;28;20181;-71
2021/05/30 15:05:30;;;;;;;3.30;1.77;;;;;;;;;;5076122;28;20174;-71
2021/05/30 15:08:34;;;;;;;5.28;1.80;;;;;;;;;;5076689;28;20182;-71
2021/05/30 15:11:38;;;;;;;3.45;1.95;;;;;;;;;;5075988;28;20178;-71
2021/05/30 15:14:42;;;;;;;3.50;2.50;;;;;;;;;;5075962;28;20206;-71
2021/05/30 15:17:47;;;;;;;4.97;1.93;;;;;;;;;;5075922;28;20178;-71
2021/05/30 15:20:52;;;;;;;3.70;1.73;;;;;;;;;;5063647;28;20182;-71
2021/05/30 15:23:57;;;;;;;3.13;1.93;;;;;;;;;;5076106;28;20705;-71
2021/05/30 15:27:00;;;;;;;3.17;1.90;;;;;;;;;;5075679;28;20631;-71
2021/05/30 15:30:06;;;;;;;2.85;1.63;;;;;;;;;;5076035;28;20178;-71
2021/05/30 15:33:10;;;;;;;4.13;2.13;;;;;;;;;;5076152;28;20228;-71
2021/05/30 15:36:17;;;;;;;2.40;1.60;;;;;;;;;;5076123;28;20182;-71
2021/05/30 15:39:21;;;;;;;3.33;1.63;;;;;;;;;;5063550;28;20178;-71
2021/05/30 15:42:26;;;;;;;12.10;4.00;;;;;;;;;;5075903;28;20177;-71
2021/05/30 15:45:31;;;;;;;9.17;2.57;;;;;;;;;;5075510;28;20168;-71
2021/05/30 15:48:35;;;;;;;3.13;1.70;;;;;;;;;;5063325;28;20179;-71
2021/05/30 15:51:44;;;;;;;4.47;2.00;;;;;;;;;;5062979;28;20203;-71
2021/05/30 15:54:48;;;;;;;2.43;1.80;;;;;;;;;;5075468;28;20211;-71
2021/05/30 15:57:53;;;;;;;24.07;3.30;;;;;;;;;;5062912;28;20626;-72
2021/05/30 16:01:27;;;;;;;3.00;2.50;;;;;;;;;;5099445;22;20239;-84
2021/05/30 16:05:18;;;;;;;2.67;2.10;;;;;;;;;;5045085;28;20567;-84
2021/05/30 16:08:57;;;;;;;3.03;1.80;;;;;;;;;;5055353;28;20179;-84
2021/05/30 16:21:16;;;;;;;2.53;1.90;;;;;;;;;;5046509;28;20216;-84
2021/05/30 16:24:20;;;;;;;3.87;2.03;;;;;;;;;;5021387;28;20208;-83
2021/05/30 16:27:24;;;;;;;3.30;2.03;;;;;;;;;;5045770;28;20188;-83
2021/05/30 16:30:28;;;;;;;3.10;2.00;;;;;;;;;;5023024;28;20211;-84
2021/05/30 16:33:32;;;;;;;5.27;2.43;;;;;;;;;;5033607;28;20176;-83
2021/05/30 16:36:37;;;;;;;2.60;2.40;;;;;;;;;;5044429;28;20199;-83
2021/05/30 16:39:41;;;;;;;4.13;2.23;;;;;;;;;;5021706;28;20215;-82
2021/05/30 16:42:46;;;;;;;10.17;2.60;;;;;;;;;;5033256;28;20176;-83
2021/05/30 16:45:50;;;;;;;8.23;2.60;;;;;;;;;;5033252;28;20222;-85
2021/05/30 16:48:54;;;;;;;4.27;2.20;;;;;;;;;;5043612;28;20212;-82
2021/05/30 16:51:58;;;;;;;3.70;2.20;;;;;;;;;;5032345;28;20200;-82
2021/05/30 16:55:04;;;;;;;3.57;2.10;;;;;;;;;;5032896;28;20559;-83
2021/05/30 16:58:08;;;;;;;3.57;2.40;;;;;;;;;;5033778;28;20177;-83
2021/05/30 17:01:12;;;;;;;2.97;2.03;;;;;;;;;;5020548;28;20227;-83
2021/05/30 17:04:19;;;;;;;4.20;2.13;;;;;;;;;;5044623;28;20212;-83
2021/05/30 17:07:24;;;;;;;4.60;2.73;;;;;;;;;;5041205;28;20180;-83
2021/05/30 17:10:28;;;;;;;7.40;2.10;;;;;;;;;;5041766;28;20219;-83
2021/05/30 17:13:32;;;;;;;5.13;2.00;;;;;;;;;;5030096;28;20547;-83
2021/05/30 17:16:36;;;;;;;6.33;2.10;;;;;;;;;;5030465;28;20184;-82
2021/05/30 17:19:41;;;;;;;4.83;2.07;;;;;;;;;;5034948;22;20230;-75
2021/05/30 17:22:46;;;;;;;5.70;2.00;;;;;;;;;;5109385;28;20217;-75
2021/05/30 17:25:50;;;;;;;4.33;1.80;;;;;;;;;;5110743;28;20170;-75
2021/05/30 17:28:55;;;;;;;4.77;2.00;;;;;;;;;;5099029;28;20198;-75
2021/05/30 17:31:58;;;;;;;4.60;1.70;;;;;;;;;;5090388;28;20206;-75
2021/05/30 17:35:04;;;;;;;2.60;2.37;;;;;;;;;;5078987;28;20804;-75
2021/05/30 17:38:09;;;;;;;2.83;2.30;;;;;;;;;;5091413;28;20174;-75
2021/05/30 17:41:15;;;;;;;4.73;2.37;;;;;;;;;;5110078;28;20178;-75
2021/05/30 17:44:19;;;;;;;3.53;2.07;;;;;;;;;;5110262;28;20691;-75
2021/05/30 17:47:24;;;;;;;4.53;2.60;;;;;;;;;;5109932;28;20197;-75
2021/05/30 17:50:28;;;;;;;8.97;2.67;;;;;;;;;;5098978;27;20187;-75
2021/05/30 17:53:34;;;;;;;12.63;8.70;;;;;;;;;;5127725;27;20208;-76
2021/05/30 17:56:38;;;;;;;9.40;8.10;;;;;;;;;;5097897;28;20187;-74
2021/05/30 17:59:43;;;;;;;5.90;5.30;;;;;;;;;;5069321;28;20202;-73
2021/05/30 18:02:47;;;;;;;6.73;4.57;;;;;;;;;;5077211;28;20214;-73
2021/05/30 18:05:52;;;;;;;3.27;2.83;;;;;;;;;;5078130;28;20218;-74
2021/05/30 18:08:56;;;;;;;3.23;2.80;;;;;;;;;;5094539;28;20194;-74
2021/05/30 18:12:01;;;;;;;5.37;2.83;;;;;;;;;;5109944;28;20190;-74
2021/05/30 18:15:06;;;;;;;10.43;3.23;;;;;;;;;;5093616;28;20183;-74
2021/05/30 18:18:11;;;;;;;10.57;2.93;;;;;;;;;;5089277;28;20646;-74
2021/05/30 18:21:17;;;;;;;3.97;1.87;;;;;;;;;;5089551;28;20202;-74
2021/05/30 18:24:21;;;;;;;6.10;2.20;;;;;;;;;;5098722;28;20222;-74
2021/05/30 18:27:25;;;;;;;10.97;2.50;;;;;;;;;;5078261;28;20190;-74
2021/05/30 18:30:31;;;;;;;5.37;1.80;;;;;;;;;;5095042;28;20711;-74
2021/05/30 18:33:35;;;;;;;2.67;1.87;;;;;;;;;;5122887;27;20210;-73
2021/05/30 18:36:40;;;;;;;3.60;1.90;;;;;;;;;;5107077;27;20182;-73
2021/05/30 18:39:44;;;;;;;3.17;1.87;;;;;;;;;;5134444;27;20181;-73
2021/05/30 18:42:49;;;;;;;3.33;1.70;;;;;;;;;;5094158;28;20218;-74